Wetterstation Vordersexau
Wetterdaten: November 2013
Datum Temp. A. Feuchte A. Luftdruck Regen Wind Richtung Taupunkt Windchill Windben
01.11.2013 7,4 C 81 % 1016,4 hPa 0,0 l/m 0,2 km/h SO 4,3 C 7,4 C 0,1 km/h
02.11.2013 13,9 C 77 % 1007,1 hPa 2,1 l/m 12,8 km/h W 9,9 C 11,1 C 7,1 km/h
03.11.2013 9,4 C 79 % 1008,0 hPa 15,5 l/m 13,3 km/h W 5,9 C 5,2 C 7,4 km/h
04.11.2013 10,4 C 73 % 996,5 hPa 0,5 l/m 18,3 km/h W-SW 5,7 C 5,1 C 10,1 km/h
05.11.2013 7,3 C 80 % 999,8 hPa 2,1 l/m 7,3 km/h W-NW 4,0 C 5,1 C 4,0 km/h
06.11.2013 11,4 C 82 % 1006,3 hPa 1,6 l/m 17,5 km/h W 8,4 C 6,5 C 9,7 km/h
07.11.2013 15,0 C 75 % 1011,8 hPa 0,0 l/m 15,3 km/h W 10,6 C 11,4 C 8,5 km/h
08.11.2013 14,2 C 78 % 1008,9 hPa 6,7 l/m 8,6 km/h W-SW 10,3 C 12,3 C 4,8 km/h
09.11.2013 9,5 C 76 % 1011,9 hPa 0,0 l/m 13,0 km/h W 5,4 C 5,8 C 7,2 km/h
10.11.2013 5,2 C 71 % 1007,9 hPa 0,0 l/m 5,8 km/h W -4,9 C 3,4 C 3,2 km/h
11.11.2013 3,8 C 49 % 1026,0 hPa 0,0 l/m 0,2 km/h W -21,0 C 3,8 C 0,1 km/h
12.11.2013 2,5 C 80 % 1024,2 hPa 0,0 l/m 0,3 km/h O-NO -0,8 C 2,5 C 0,2 km/h
13.11.2013 5,6 C 82 % 1026,0 hPa 1,6 l/m 0,4 km/h SO 2,8 C 5,6 C 0,2 km/h
14.11.2013 4,9 C 84 % 1019,7 hPa 0,5 l/m 4,3 km/h SO 2,5 C 3,3 C 2,4 km/h
15.11.2013 5,6 C 76 % 1019,6 hPa 0,0 l/m 0,6 km/h N 1,6 C 5,6 C 0,3 km/h
16.11.2013 6,1 C 81 % 1024,6 hPa 0,0 l/m 0,1 km/h O-SO 3,0 C 6,1 C 0,0 km/h
17.11.2013 5,7 C 84 % 1019,3 hPa 0,0 l/m 0,0 km/h W 3,2 C 5,7 C 0,0 km/h
18.11.2013 5,2 C 80 % 1009,8 hPa 0,0 l/m 0,2 km/h NO 1,8 C 5,2 C 0,1 km/h
19.11.2013 3,8 C 79 % 1004,0 hPa 9,3 l/m 0,2 km/h W-NW 0,5 C 3,8 C 0,1 km/h
20.11.2013 3,4 C 76 % 1003,6 hPa 4,1 l/m 2,1 km/h SW -0,5 C 2,7 C 1,2 km/h
21.11.2013 1,6 C 83 % 996,6 hPa 4,1 l/m 0,1 km/h S -0,9 C 1,6 C 0,0 km/h
22.11.2013 2,5 C 78 % 1001,6 hPa 4,1 l/m 0,2 km/h SO -0,9 C 2,5 C 0,1 km/h
23.11.2013 4,3 C 82 % 1009,1 hPa 0,0 l/m 2,6 km/h N-NO 1,5 C 3,5 C 1,4 km/h
24.11.2013 5,0 C 86 % 1015,9 hPa 0,5 l/m 1,0 km/h N-NO 2,9 C 4,7 C 0,5 km/h
25.11.2013 2,1 C 78 % 1025,6 hPa 0,0 l/m 0,4 km/h N-NO -1,5 C 2,1 C 0,2 km/h
26.11.2013 0,8 C 81 % 1029,6 hPa 0,0 l/m 0,6 km/h N -2,3 C 0,5 C 0,3 km/h
27.11.2013 -1,9 C 81 % 1029,9 hPa 0,5 l/m 0,2 km/h N-NO -4,9 C -1,9 C 0,1 km/h
28.11.2013 -1,2 C 85 % 1030,1 hPa 0,0 l/m 0,0 km/h W -3,4 C -1,2 C 0,0 km/h
29.11.2013 2,3 C 84 % 1024,1 hPa 0,0 l/m 8,0 km/h O -0,2 C -0,8 C 4,5 km/h
30.11.2013 3,2 C 82 % 1018,3 hPa 2,6 l/m 2,6 km/h SO 0,3 C 2,2 C 1,5 km/h
Min-Datum 27.11.13 10.11.13 04.11.13 15 Tage 01.11.13 - 10.11.13 29.11.13 01.11.13
Min-Zeit 08:19 21:19 16:19 - 00:19 - 21:19 21:19 00:19
Minimum -6,1 C 0 % 992,0 hPa - 0,0 km/h - -60,0 C -9,2 C 0,0 km/h
Max-Datum 02.11.13 25.11.13 28.11.13 03.11.13 04.11.13 - 08.11.13 07.11.13 04.11.13
Max-Zeit 13:19 05:19 02:19 06:19 13:19 - 15:19 15:19 13:19
Maximum 17,5 C 88 % 1031,4 hPa 15,5 l/m 39,5 km/h
W-SW
- 12,1 C 15,9 C 22,0 km/h
W-SW
Durchschnitt 5,6 C 79 % 1014,4 hPa #55,9 l/m 4,5 km/h W 1,4 C 4,4 C 2,5 km/h

Durchschnitt Minimum Temp.2,0 C
Durchschnitt Maximum Temp.9,8 C
www.sexauwetter.de